createdAt,value
2024-03-15T00:00:25.776Z,11.90
2024-03-15T00:01:25.683Z,12.70
2024-03-15T00:02:25.754Z,12.20
2024-03-15T00:03:25.773Z,12.10
2024-03-15T00:04:25.690Z,12.60
2024-03-15T00:05:25.667Z,12.00
2024-03-15T00:06:25.659Z,12.20
2024-03-15T00:07:25.621Z,11.20
2024-03-15T00:08:25.637Z,11.90
2024-03-15T00:09:25.615Z,11.90
2024-03-15T00:10:25.599Z,11.50
2024-03-15T00:11:25.569Z,11.60
2024-03-15T00:12:25.677Z,12.10
2024-03-15T00:13:25.613Z,12.10
2024-03-15T00:14:25.553Z,12.40
2024-03-15T00:15:25.535Z,11.90
2024-03-15T00:16:25.528Z,12.30
2024-03-15T00:17:25.520Z,12.50
2024-03-15T00:18:25.793Z,12.30
2024-03-15T00:19:25.508Z,12.60
2024-03-15T00:20:25.498Z,12.50
2024-03-15T00:21:25.573Z,12.70
2024-03-15T00:22:25.471Z,12.70
2024-03-15T00:23:25.461Z,12.90
2024-03-15T00:24:25.467Z,12.30
2024-03-15T00:25:25.456Z,12.10
2024-03-15T00:26:26.632Z,12.30
2024-03-15T00:27:25.466Z,12.60
2024-03-15T00:28:25.422Z,12.20
2024-03-15T00:29:25.403Z,12.90
2024-03-15T00:30:25.554Z,12.30
2024-03-15T00:31:25.376Z,13.00
2024-03-15T00:32:25.357Z,12.30
2024-03-15T00:33:25.514Z,12.00
2024-03-15T00:34:25.317Z,12.40
2024-03-15T00:35:25.318Z,12.30
2024-03-15T00:36:25.368Z,12.60
2024-03-15T00:37:25.273Z,12.40
2024-03-15T00:38:25.299Z,12.30
2024-03-15T00:39:25.308Z,12.50
2024-03-15T00:40:25.286Z,12.90
2024-03-15T00:41:25.238Z,13.00
2024-03-15T00:42:25.309Z,13.60
2024-03-15T00:43:25.227Z,13.50
2024-03-15T00:44:25.236Z,13.10
2024-03-15T00:45:25.269Z,12.80
2024-03-15T00:46:25.229Z,12.20
2024-03-15T00:47:25.198Z,13.60
2024-03-15T00:48:25.296Z,12.60
2024-03-15T00:49:25.186Z,12.90
2024-03-15T00:50:25.180Z,12.60
2024-03-15T00:51:25.159Z,13.10
2024-03-15T00:52:25.122Z,13.20
2024-03-15T00:53:26.545Z,13.20
2024-03-15T00:54:25.147Z,14.00
2024-03-15T00:55:25.098Z,13.30
2024-03-15T00:56:25.093Z,13.90
2024-03-15T00:57:25.099Z,13.20
2024-03-15T00:58:25.111Z,13.70
2024-03-15T00:59:25.073Z,13.00
2024-03-15T01:00:25.110Z,13.00
2024-03-15T01:01:25.062Z,13.00
2024-03-15T01:02:27.177Z,13.30
2024-03-15T01:03:25.064Z,14.60
2024-03-15T01:04:24.997Z,13.60
2024-03-15T01:05:24.991Z,14.50
2024-03-15T01:06:24.998Z,13.70
2024-03-15T01:07:24.989Z,13.40
2024-03-15T01:08:25.062Z,13.40
2024-03-15T01:09:26.136Z,13.50
2024-03-15T01:10:24.971Z,13.90
2024-03-15T01:11:24.961Z,14.10
2024-03-15T01:12:24.946Z,13.50
2024-03-15T01:13:24.907Z,14.00
2024-03-15T01:14:24.936Z,14.80
2024-03-15T01:15:24.898Z,14.10
2024-03-15T01:16:24.892Z,13.80
2024-03-15T01:17:24.853Z,14.00
2024-03-15T01:18:24.964Z,14.10
2024-03-15T01:19:24.832Z,14.70
2024-03-15T01:20:24.835Z,14.60
2024-03-15T01:21:24.821Z,13.50
2024-03-15T01:22:24.847Z,14.10
2024-03-15T01:23:24.818Z,14.60
2024-03-15T01:24:24.813Z,14.30
2024-03-15T01:25:24.791Z,14.30
2024-03-15T01:26:24.796Z,14.40
2024-03-15T01:27:24.766Z,15.00
2024-03-15T01:28:24.755Z,14.00
2024-03-15T01:29:24.729Z,14.70
2024-03-15T01:30:24.763Z,14.50
2024-03-15T01:31:24.716Z,14.80
2024-03-15T01:32:24.737Z,15.50
2024-03-15T01:33:24.743Z,15.00
2024-03-15T01:34:24.688Z,15.60
2024-03-15T01:35:24.652Z,14.90
2024-03-15T01:36:24.667Z,15.10
2024-03-15T01:37:24.655Z,16.10
2024-03-15T01:38:24.664Z,16.70
2024-03-15T01:39:24.659Z,15.50
2024-03-15T01:40:24.627Z,15.70
2024-03-15T01:41:24.599Z,16.10
2024-03-15T01:42:24.655Z,14.90
2024-03-15T01:43:24.598Z,15.10
2024-03-15T01:44:24.562Z,15.80
2024-03-15T01:45:24.566Z,15.90
2024-03-15T01:46:24.606Z,16.20
2024-03-15T01:47:24.555Z,15.40
2024-03-15T01:48:24.663Z,15.70
2024-03-15T01:49:24.503Z,16.40
2024-03-15T01:50:24.509Z,16.20
2024-03-15T01:51:24.531Z,15.70
2024-03-15T01:52:24.485Z,15.50
2024-03-15T01:53:24.484Z,15.50
2024-03-15T01:54:24.532Z,15.90
2024-03-15T01:55:24.441Z,16.60
2024-03-15T01:56:24.428Z,16.10
2024-03-15T01:57:24.566Z,16.40
2024-03-15T01:58:24.461Z,15.80
2024-03-15T01:59:24.443Z,16.70
2024-03-15T02:00:24.468Z,16.50
2024-03-15T02:01:24.408Z,16.30
2024-03-15T02:02:24.373Z,16.60
2024-03-15T02:03:24.391Z,16.90
2024-03-15T02:04:24.372Z,16.20
2024-03-15T02:05:24.363Z,16.70
2024-03-15T02:06:24.377Z,17.00
2024-03-15T02:07:24.306Z,16.90
2024-03-15T02:08:24.314Z,17.20
2024-03-15T02:09:24.353Z,17.10
2024-03-15T02:10:24.301Z,17.30
2024-03-15T02:11:24.322Z,16.60
2024-03-15T02:13:24.243Z,18.60
2024-03-15T02:14:24.263Z,17.70
2024-03-15T02:15:24.239Z,18.20
2024-03-15T02:16:24.225Z,17.20
2024-03-15T02:17:24.212Z,16.90
2024-03-15T02:18:24.225Z,17.70
2024-03-15T02:19:24.192Z,17.70
2024-03-15T02:20:24.171Z,17.50
2024-03-15T02:21:24.183Z,18.30
2024-03-15T02:22:24.158Z,17.10
2024-03-15T02:23:26.622Z,18.00
2024-03-15T02:24:24.181Z,17.60
2024-03-15T02:25:24.135Z,17.70
2024-03-15T02:26:24.119Z,17.80
2024-03-15T02:27:24.144Z,17.70
2024-03-15T02:28:24.100Z,18.00
2024-03-15T02:29:24.090Z,18.90
2024-03-15T02:30:24.121Z,18.20
2024-03-15T02:31:24.052Z,17.80
2024-03-15T02:32:24.096Z,17.30
2024-03-15T02:33:24.059Z,17.20
2024-03-15T02:34:24.065Z,18.50
2024-03-15T02:35:28.062Z,18.20
2024-03-15T02:36:24.049Z,17.90
2024-03-15T02:37:23.994Z,17.60
2024-03-15T02:38:24.008Z,18.40
2024-03-15T02:39:24.039Z,18.80
2024-03-15T02:40:23.971Z,18.70
2024-03-15T02:41:23.938Z,18.30
2024-03-15T02:42:24.014Z,18.60
2024-03-15T02:43:23.926Z,17.60
2024-03-15T02:44:23.942Z,17.70
2024-03-15T02:45:23.987Z,18.40
2024-03-15T02:46:23.908Z,17.80
2024-03-15T02:47:23.905Z,18.20
2024-03-15T02:48:23.975Z,18.50
2024-03-15T02:49:23.873Z,18.70
2024-03-15T02:50:23.872Z,18.60
2024-03-15T02:51:23.870Z,19.30
2024-03-15T02:52:23.844Z,18.60
2024-03-15T02:53:23.877Z,19.10
2024-03-15T02:54:23.866Z,19.40
2024-03-15T02:55:23.798Z,19.60
2024-03-15T02:56:23.819Z,19.20
2024-03-15T02:57:23.818Z,18.30
2024-03-15T02:58:23.780Z,19.20
2024-03-15T02:59:23.787Z,19.30
2024-03-15T03:00:23.773Z,18.20
2024-03-15T03:01:23.760Z,19.80
2024-03-15T03:02:23.734Z,18.90
2024-03-15T03:03:23.725Z,19.00
2024-03-15T03:04:24.161Z,18.90
2024-03-15T03:05:23.694Z,19.40
2024-03-15T03:06:23.738Z,18.60
2024-03-15T03:07:23.691Z,18.50
2024-03-15T03:08:23.692Z,19.00
2024-03-15T03:09:23.712Z,18.80
2024-03-15T03:10:23.651Z,18.60
2024-03-15T03:11:23.624Z,19.20
2024-03-15T03:12:23.711Z,19.70
2024-03-15T03:13:23.652Z,19.30
2024-03-15T03:14:23.620Z,19.40
2024-03-15T03:15:23.603Z,19.40
2024-03-15T03:16:23.589Z,18.40
2024-03-15T03:17:23.563Z,19.40
2024-03-15T03:18:23.647Z,18.30
2024-03-15T03:19:23.566Z,19.70
2024-03-15T03:20:23.588Z,19.90
2024-03-15T03:21:29.563Z,20.00
2024-03-15T03:22:23.538Z,20.80
2024-03-15T03:23:23.571Z,21.00
2024-03-15T03:24:23.523Z,19.50
2024-03-15T03:25:23.476Z,20.40
2024-03-15T03:26:23.497Z,20.20
2024-03-15T03:27:23.511Z,20.10
2024-03-15T03:28:23.453Z,20.40
2024-03-15T03:29:23.467Z,20.60
2024-03-15T03:30:23.660Z,21.20
2024-03-15T03:31:23.429Z,19.40
2024-03-15T03:32:23.415Z,20.50
2024-03-15T03:33:23.462Z,20.70
2024-03-15T03:34:23.414Z,19.70
2024-03-15T03:35:23.362Z,20.30
2024-03-15T03:36:23.400Z,20.00
2024-03-15T03:37:23.372Z,20.30
2024-03-15T03:38:23.378Z,20.60
2024-03-15T03:39:23.388Z,20.50
2024-03-15T03:40:23.323Z,21.00
2024-03-15T03:41:23.310Z,21.00
2024-03-15T03:42:23.370Z,19.80
2024-03-15T03:43:23.283Z,21.00
2024-03-15T03:44:23.303Z,20.50
2024-03-15T03:45:23.323Z,21.90
2024-03-15T03:46:23.269Z,20.10
2024-03-15T03:47:23.292Z,21.30
2024-03-15T03:48:23.310Z,21.40
2024-03-15T03:49:23.233Z,21.00
2024-03-15T03:50:23.227Z,21.20
2024-03-15T03:51:23.230Z,20.30
2024-03-15T03:52:23.200Z,21.60
2024-03-15T03:53:23.183Z,21.10
2024-03-15T03:54:23.763Z,20.80
2024-03-15T03:55:23.158Z,20.90
2024-03-15T03:56:23.155Z,21.00
2024-03-15T03:57:35.293Z,21.30
2024-03-15T03:58:23.230Z,21.80
2024-03-15T03:59:23.128Z,21.00
2024-03-15T04:00:23.292Z,20.80
2024-03-15T04:01:23.194Z,21.80
2024-03-15T04:02:23.105Z,21.00
2024-03-15T04:03:23.107Z,21.20
2024-03-15T04:04:23.070Z,21.00
2024-03-15T04:05:23.064Z,21.30
2024-03-15T04:06:23.052Z,21.60
2024-03-15T04:07:23.023Z,20.80
2024-03-15T04:08:23.028Z,21.70
2024-03-15T04:09:23.069Z,21.90
2024-03-15T04:10:22.997Z,21.40
2024-03-15T04:11:23.022Z,21.20
2024-03-15T04:12:23.819Z,21.50
2024-03-15T04:13:22.973Z,20.90
2024-03-15T04:14:23.712Z,21.80
2024-03-15T04:15:29.308Z,21.70
2024-03-15T04:16:23.103Z,20.10
2024-03-15T04:17:22.919Z,20.60
2024-03-15T04:18:23.085Z,21.30
2024-03-15T04:19:22.909Z,21.40
2024-03-15T04:20:22.914Z,21.90
2024-03-15T04:21:22.930Z,21.20
2024-03-15T04:22:22.867Z,21.20
2024-03-15T04:23:22.968Z,21.60
2024-03-15T04:24:22.923Z,20.30
2024-03-15T04:25:22.840Z,20.70
2024-03-15T04:26:22.890Z,19.90
2024-03-15T04:27:22.875Z,21.70
2024-03-15T04:28:23.034Z,21.70
2024-03-15T04:29:22.802Z,21.80
2024-03-15T04:30:22.880Z,21.30
2024-03-15T04:31:22.806Z,22.00
2024-03-15T04:32:22.771Z,21.30
2024-03-15T04:33:22.799Z,21.20
2024-03-15T04:34:22.766Z,21.20
2024-03-15T04:35:22.734Z,22.30
2024-03-15T04:36:22.762Z,22.10
2024-03-15T04:37:22.722Z,20.90
2024-03-15T04:38:22.722Z,21.40
2024-03-15T04:39:22.733Z,21.50
2024-03-15T04:40:22.699Z,21.40
2024-03-15T04:41:22.679Z,21.80
2024-03-15T04:42:23.233Z,21.80
2024-03-15T04:43:22.668Z,21.50
2024-03-15T04:44:22.650Z,21.90
2024-03-15T04:45:22.677Z,22.80
2024-03-15T04:46:22.627Z,21.40
2024-03-15T04:47:22.614Z,22.20
2024-03-15T04:48:22.713Z,21.90
2024-03-15T04:49:22.610Z,22.60
2024-03-15T04:50:23.091Z,22.00
2024-03-15T04:51:22.570Z,21.80
2024-03-15T04:52:22.573Z,21.60
2024-03-15T04:53:22.562Z,21.90
2024-03-15T04:54:22.637Z,22.40
2024-03-15T04:55:22.525Z,22.60
2024-03-15T04:56:22.503Z,23.30
2024-03-15T04:57:23.101Z,22.40
2024-03-15T04:58:22.516Z,22.50
2024-03-15T04:59:22.505Z,22.60
2024-03-15T05:00:23.577Z,23.10
2024-03-15T05:01:22.471Z,21.10
2024-03-15T05:02:22.458Z,21.90
2024-03-15T05:03:22.474Z,22.10
2024-03-15T05:04:22.461Z,22.60
2024-03-15T05:05:23.437Z,21.80
2024-03-15T05:06:27.192Z,22.30
2024-03-15T05:07:22.450Z,22.30
2024-03-15T05:08:22.454Z,22.20
2024-03-15T05:09:22.478Z,23.00
2024-03-15T05:10:22.497Z,22.60
2024-03-15T05:11:22.364Z,22.80
2024-03-15T05:12:22.362Z,22.30
2024-03-15T05:13:22.318Z,23.10
2024-03-15T05:14:22.324Z,22.70
2024-03-15T05:15:22.494Z,22.20
2024-03-15T05:16:22.303Z,22.50
2024-03-15T05:17:22.279Z,22.00
2024-03-15T05:18:22.373Z,22.80
2024-03-15T05:19:26.959Z,22.60
2024-03-15T05:20:22.264Z,22.30
2024-03-15T05:21:22.283Z,21.80
2024-03-15T05:22:22.249Z,22.60
2024-03-15T05:23:22.220Z,22.70
2024-03-15T05:24:22.248Z,22.80
2024-03-15T05:25:22.183Z,22.10
2024-03-15T05:26:22.191Z,23.30
2024-03-15T05:27:22.749Z,22.60
2024-03-15T05:28:22.185Z,21.70
2024-03-15T05:29:23.241Z,21.90
2024-03-15T05:30:22.195Z,22.60
2024-03-15T05:31:22.154Z,23.10
2024-03-15T05:32:22.148Z,22.60
2024-03-15T05:33:22.183Z,22.40
2024-03-15T05:34:22.117Z,21.90
2024-03-15T05:35:22.510Z,22.60
2024-03-15T05:36:22.204Z,21.70
2024-03-15T05:37:22.057Z,22.20
2024-03-15T05:38:22.066Z,23.20
2024-03-15T05:39:22.087Z,22.50
2024-03-15T05:40:22.036Z,23.00
2024-03-15T05:41:22.025Z,23.50
2024-03-15T05:42:22.067Z,22.90
2024-03-15T05:43:21.997Z,22.60
2024-03-15T05:44:22.054Z,23.30
2024-03-15T05:45:22.009Z,22.50
2024-03-15T05:46:21.968Z,22.50
2024-03-15T05:47:22.211Z,22.60
2024-03-15T05:48:21.992Z,22.40
2024-03-15T05:49:21.939Z,22.10
2024-03-15T05:50:22.341Z,22.80
2024-03-15T05:51:21.927Z,22.70
2024-03-15T05:52:21.917Z,22.70
2024-03-15T05:53:21.901Z,21.80
2024-03-15T05:54:21.959Z,21.40
2024-03-15T05:55:21.925Z,21.70
2024-03-15T05:56:21.858Z,22.40
2024-03-15T05:57:21.917Z,22.30
2024-03-15T05:58:21.853Z,22.70
2024-03-15T05:59:21.860Z,22.30
2024-03-15T06:00:22.327Z,22.60
2024-03-15T06:01:21.901Z,22.30
2024-03-15T06:02:21.798Z,21.70
2024-03-15T06:03:21.848Z,21.50
2024-03-15T06:04:21.806Z,21.70
2024-03-15T06:05:21.758Z,22.40
2024-03-15T06:06:21.806Z,22.10
2024-03-15T06:07:21.750Z,22.50
2024-03-15T06:08:21.728Z,21.00
2024-03-15T06:09:21.772Z,21.80
2024-03-15T06:10:21.792Z,21.00
2024-03-15T06:11:21.687Z,21.40
2024-03-15T06:12:21.718Z,21.20
2024-03-15T06:13:21.700Z,20.60
2024-03-15T06:14:21.690Z,21.30
2024-03-15T06:15:21.687Z,20.90
2024-03-15T06:16:21.662Z,21.40
2024-03-15T06:17:21.661Z,21.60
2024-03-15T06:18:21.772Z,21.10
2024-03-15T06:19:21.620Z,20.30
2024-03-15T06:20:21.620Z,21.30
2024-03-15T06:21:21.634Z,21.50
2024-03-15T06:22:21.598Z,21.00
2024-03-15T06:23:21.769Z,20.80
2024-03-15T06:24:21.684Z,20.70
2024-03-15T06:25:21.548Z,20.80
2024-03-15T06:26:21.549Z,19.80
2024-03-15T06:27:21.701Z,19.70
2024-03-15T06:28:21.535Z,19.20
2024-03-15T06:29:21.511Z,18.90
2024-03-15T06:30:21.561Z,18.40
2024-03-15T06:31:22.616Z,18.50
2024-03-15T06:32:21.481Z,17.50
2024-03-15T06:33:21.585Z,17.40
2024-03-15T06:34:21.490Z,16.70
2024-03-15T06:35:21.646Z,17.50
2024-03-15T06:36:21.484Z,17.10
2024-03-15T06:37:21.419Z,17.00
2024-03-15T06:38:21.428Z,16.90
2024-03-15T06:39:21.430Z,16.80
2024-03-15T06:40:21.405Z,17.60
2024-03-15T06:41:21.381Z,16.10
2024-03-15T06:42:21.416Z,16.10
2024-03-15T06:43:21.362Z,15.90
2024-03-15T06:44:21.480Z,16.30
2024-03-15T06:45:21.355Z,15.80
2024-03-15T06:46:21.651Z,15.50
2024-03-15T06:47:21.304Z,15.10
2024-03-15T06:48:21.439Z,16.00
2024-03-15T06:49:21.314Z,15.30
2024-03-15T06:50:21.488Z,15.30
2024-03-15T06:51:21.313Z,15.80
2024-03-15T06:52:22.034Z,16.10
2024-03-15T06:53:21.255Z,15.60
2024-03-15T06:54:21.333Z,14.90
2024-03-15T06:55:21.279Z,15.30
2024-03-15T06:56:21.293Z,15.10
2024-03-15T06:57:21.729Z,15.90
2024-03-15T06:58:24.126Z,15.30
2024-03-15T06:59:21.228Z,15.30
2024-03-15T07:00:21.262Z,15.30
2024-03-15T07:01:21.365Z,15.10
2024-03-15T07:02:21.300Z,14.90
2024-03-15T07:03:21.292Z,14.90
2024-03-15T07:04:21.292Z,14.70
2024-03-15T07:05:21.159Z,14.60
2024-03-15T07:06:21.167Z,14.90
2024-03-15T07:07:21.202Z,15.10
2024-03-15T07:08:21.150Z,14.50
2024-03-15T07:09:21.108Z,14.60
2024-03-15T07:10:21.111Z,14.10
2024-03-15T07:11:21.106Z,14.60
2024-03-15T07:12:21.086Z,14.20
2024-03-15T07:13:21.039Z,14.20
2024-03-15T07:14:21.044Z,14.10
2024-03-15T07:15:21.107Z,14.50
2024-03-15T07:16:21.064Z,14.20
2024-03-15T07:17:20.993Z,13.90
2024-03-15T07:18:21.118Z,13.90
2024-03-15T07:19:21.060Z,13.90
2024-03-15T07:20:20.988Z,14.10
2024-03-15T07:21:21.002Z,14.40
2024-03-15T07:22:20.959Z,14.00
2024-03-15T07:23:20.915Z,14.30
2024-03-15T07:24:21.048Z,14.60
2024-03-15T07:25:20.908Z,14.10
2024-03-15T07:26:20.906Z,14.10
2024-03-15T07:27:20.987Z,14.30
2024-03-15T07:28:20.968Z,14.70
2024-03-15T07:29:20.864Z,13.40
2024-03-15T07:30:21.022Z,13.70
2024-03-15T07:31:20.854Z,14.40
2024-03-15T07:32:20.922Z,13.30
2024-03-15T07:33:20.949Z,13.90
2024-03-15T07:34:20.959Z,13.70
2024-03-15T07:35:20.829Z,13.30
2024-03-15T07:36:20.911Z,13.40
2024-03-15T07:37:20.786Z,12.90
2024-03-15T07:38:20.775Z,13.80
2024-03-15T07:39:20.800Z,13.10
2024-03-15T07:40:20.768Z,13.70
2024-03-15T07:41:20.754Z,14.50
2024-03-15T07:42:20.752Z,13.70
2024-03-15T07:43:20.808Z,13.70
2024-03-15T07:44:20.732Z,12.70
2024-03-15T07:45:20.766Z,12.80
2024-03-15T07:46:20.736Z,13.50
2024-03-15T07:47:20.676Z,13.00
2024-03-15T07:48:21.038Z,12.90
2024-03-15T07:49:20.727Z,13.10
2024-03-15T07:50:20.752Z,12.80
2024-03-15T07:51:20.714Z,13.00
2024-03-15T07:52:20.726Z,13.80
2024-03-15T07:53:20.642Z,12.90
2024-03-15T07:54:20.676Z,12.90
2024-03-15T07:55:20.579Z,12.40
2024-03-15T07:56:20.577Z,12.50
2024-03-15T07:57:20.595Z,12.10
2024-03-15T07:58:20.613Z,12.30
2024-03-15T07:59:20.556Z,12.20
2024-03-15T08:00:20.808Z,12.40
2024-03-15T08:01:20.680Z,12.50
2024-03-15T08:02:20.548Z,12.00
2024-03-15T08:03:20.708Z,11.80
2024-03-15T08:04:20.584Z,12.00
2024-03-15T08:05:20.491Z,11.80
2024-03-15T08:06:20.491Z,12.00
2024-03-15T08:07:20.462Z,11.90
2024-03-15T08:08:20.537Z,11.60
2024-03-15T08:09:20.451Z,12.20
2024-03-15T08:10:21.651Z,11.00
2024-03-15T08:11:20.477Z,11.00
2024-03-15T08:12:20.526Z,12.00
2024-03-15T08:13:20.408Z,12.20
2024-03-15T08:14:20.397Z,11.20
2024-03-15T08:15:20.485Z,11.50
2024-03-15T08:16:20.713Z,11.60
2024-03-15T08:17:20.385Z,11.60
2024-03-15T08:18:20.382Z,10.90
2024-03-15T08:19:20.423Z,10.60
2024-03-15T08:20:20.325Z,11.50
2024-03-15T08:24:21.452Z,10.70
2024-03-15T08:24:57.729Z,11.10
2024-03-15T08:25:57.626Z,11.40
2024-03-15T08:26:57.548Z,10.60
2024-03-15T08:27:58.707Z,11.90
2024-03-15T08:28:57.532Z,11.30
2024-03-15T08:29:57.525Z,10.50
2024-03-15T08:30:57.642Z,11.30
2024-03-15T08:31:57.568Z,12.00
2024-03-15T08:32:57.611Z,10.60
2024-03-15T08:33:57.496Z,11.30
2024-03-15T08:34:57.486Z,10.70
2024-03-15T08:35:57.454Z,11.30
2024-03-15T08:36:57.448Z,11.40
2024-03-15T08:37:57.460Z,11.00
2024-03-15T08:38:57.410Z,11.30
2024-03-15T08:39:57.509Z,11.20
2024-03-15T08:40:57.395Z,10.80
2024-03-15T08:41:57.387Z,11.00
2024-03-15T08:42:57.395Z,11.20
2024-03-15T08:43:57.360Z,10.10
2024-03-15T08:44:57.360Z,10.60
2024-03-15T08:45:57.475Z,11.00
2024-03-15T08:46:57.360Z,10.70
2024-03-15T08:48:01.330Z,11.30
2024-03-15T08:48:57.435Z,11.10
2024-03-15T08:49:57.450Z,10.50
2024-03-15T08:50:57.290Z,10.40
2024-03-15T08:51:57.466Z,10.70
2024-03-15T08:52:57.286Z,11.00
2024-03-15T08:53:57.316Z,10.20
2024-03-15T08:54:57.311Z,11.00
2024-03-15T08:55:57.296Z,10.20
2024-03-15T08:56:57.220Z,10.50
2024-03-15T08:57:57.341Z,10.30
2024-03-15T08:58:57.213Z,9.90
2024-03-15T08:59:57.232Z,10.50
2024-03-15T09:00:57.467Z,10.80
2024-03-15T09:01:57.340Z,9.80
2024-03-15T09:02:57.177Z,10.60
2024-03-15T09:03:57.303Z,10.50
2024-03-15T09:04:57.214Z,10.00
2024-03-15T09:05:57.152Z,10.30
2024-03-15T09:06:57.216Z,10.50
2024-03-15T09:07:57.127Z,9.80
2024-03-15T09:08:57.105Z,10.30
2024-03-15T09:09:57.154Z,9.90
2024-03-15T09:10:57.102Z,10.20
2024-03-15T09:11:57.167Z,10.40
2024-03-15T09:12:57.107Z,9.90
2024-03-15T09:13:57.069Z,9.70
2024-03-15T09:14:57.083Z,9.90
2024-03-15T09:15:57.249Z,10.40
2024-03-15T09:16:57.037Z,10.00
2024-03-15T09:17:57.071Z,9.40
2024-03-15T09:18:57.059Z,9.70
2024-03-15T09:19:57.063Z,9.90
2024-03-15T09:20:57.015Z,9.20
2024-03-15T09:21:57.252Z,9.90
2024-03-15T09:22:57.059Z,9.50
2024-03-15T09:23:57.008Z,9.30
2024-03-15T09:24:57.047Z,9.40
2024-03-15T09:25:56.958Z,9.80
2024-03-15T09:26:57.019Z,9.40
2024-03-15T09:27:56.986Z,9.20
2024-03-15T09:28:56.892Z,10.10
2024-03-15T09:29:56.942Z,9.50
2024-03-15T09:31:04.412Z,9.50
2024-03-15T09:32:07.473Z,9.20
2024-03-15T09:32:57.073Z,9.40
2024-03-15T09:33:57.061Z,9.00
2024-03-15T09:34:56.930Z,9.20
2024-03-15T09:35:56.862Z,9.40
2024-03-15T09:36:57.115Z,8.90
2024-03-15T09:37:56.937Z,8.90
2024-03-15T09:38:56.873Z,9.00
2024-03-15T09:39:56.841Z,9.40
2024-03-15T09:40:56.828Z,9.40
2024-03-15T09:41:56.824Z,8.70
2024-03-15T09:42:56.823Z,9.00
2024-03-15T09:43:56.764Z,9.40
2024-03-15T09:44:56.775Z,8.80
2024-03-15T09:45:56.855Z,8.80
2024-03-15T09:46:56.735Z,9.00
2024-03-15T09:47:56.755Z,9.30
2024-03-15T09:48:56.730Z,8.80
2024-03-15T09:49:56.718Z,8.60
2024-03-15T09:50:56.728Z,8.80
2024-03-15T09:51:56.729Z,9.90
2024-03-15T09:52:56.917Z,8.70
2024-03-15T09:53:56.677Z,8.90
2024-03-15T09:54:56.808Z,8.50
2024-03-15T09:55:56.656Z,8.40
2024-03-15T09:56:56.618Z,8.70
2024-03-15T09:57:56.842Z,9.10
2024-03-15T09:58:56.632Z,8.70
2024-03-15T09:59:56.684Z,8.50
2024-03-15T10:00:56.734Z,8.80
2024-03-15T10:01:56.730Z,9.30
2024-03-15T10:02:56.579Z,9.30
2024-03-15T10:03:56.577Z,8.60
2024-03-15T10:04:56.603Z,8.90
2024-03-15T10:05:59.011Z,8.90
2024-03-15T10:06:56.721Z,8.70
2024-03-15T10:07:56.578Z,8.70
2024-03-15T10:08:56.519Z,8.50
2024-03-15T10:09:56.612Z,8.80
2024-03-15T10:10:56.492Z,9.00
2024-03-15T10:11:56.496Z,8.90
2024-03-15T10:12:58.374Z,8.50
2024-03-15T10:13:56.525Z,8.90
2024-03-15T10:14:56.510Z,8.50
2024-03-15T10:15:56.458Z,8.60
2024-03-15T10:16:56.435Z,8.90
2024-03-15T10:17:56.500Z,9.10
2024-03-15T10:18:56.430Z,8.70
2024-03-15T10:19:56.575Z,9.30
2024-03-15T10:20:56.403Z,8.40
2024-03-15T10:21:56.393Z,8.80
2024-03-15T10:22:56.373Z,8.90
2024-03-15T10:24:02.787Z,7.80
2024-03-15T10:24:56.435Z,8.40
2024-03-15T10:25:56.372Z,8.60
2024-03-15T10:26:56.406Z,8.30
2024-03-15T10:27:56.593Z,8.50
2024-03-15T10:28:56.354Z,8.30
2024-03-15T10:29:56.506Z,8.40
2024-03-15T10:30:56.314Z,8.30
2024-03-15T10:31:56.346Z,8.20
2024-03-15T10:32:56.887Z,8.00
2024-03-15T10:33:56.356Z,8.60
2024-03-15T10:34:56.271Z,7.60
2024-03-15T10:35:56.257Z,8.30
2024-03-15T10:36:56.261Z,8.40
2024-03-15T10:37:56.445Z,8.10
2024-03-15T10:38:56.325Z,8.80
2024-03-15T10:39:56.336Z,8.30
2024-03-15T10:40:56.188Z,8.50
2024-03-15T10:41:56.222Z,7.90
2024-03-15T10:42:56.237Z,8.50
2024-03-15T10:43:56.207Z,8.00
2024-03-15T10:44:56.181Z,8.10
2024-03-15T10:45:56.139Z,8.20
2024-03-15T10:46:56.335Z,8.30
2024-03-15T10:47:56.142Z,8.00
2024-03-15T10:48:56.199Z,8.00
2024-03-15T10:49:56.159Z,8.10
2024-03-15T10:50:56.119Z,8.20
2024-03-15T10:51:56.168Z,8.20
2024-03-15T10:52:57.687Z,7.70
2024-03-15T10:53:56.083Z,8.40
2024-03-15T10:54:56.150Z,8.40
2024-03-15T10:55:56.104Z,8.30
2024-03-15T10:56:56.045Z,8.50
2024-03-15T10:57:56.166Z,8.40
2024-03-15T10:58:56.025Z,8.20
2024-03-15T10:59:56.086Z,8.30
2024-03-15T11:00:56.191Z,7.90
2024-03-15T11:01:56.053Z,7.80
2024-03-15T11:02:55.973Z,7.40
2024-03-15T11:03:56.029Z,8.40
2024-03-15T11:04:55.946Z,8.10
2024-03-15T11:05:55.947Z,7.50
2024-03-15T11:06:56.000Z,8.20
2024-03-15T11:07:55.942Z,8.20
2024-03-15T11:08:55.914Z,7.80
2024-03-15T11:09:56.042Z,7.90
2024-03-15T11:10:56.350Z,8.30
2024-03-15T11:11:55.918Z,8.70
2024-03-15T11:12:55.933Z,8.00
2024-03-15T11:13:55.861Z,7.70
2024-03-15T11:14:55.860Z,7.50
2024-03-15T11:15:55.904Z,7.40
2024-03-15T11:16:55.986Z,8.50
2024-03-15T11:17:55.823Z,7.60
2024-03-15T11:18:55.901Z,8.00
2024-03-15T11:19:56.024Z,7.90
2024-03-15T11:20:56.100Z,8.10
2024-03-15T11:21:55.779Z,8.60
2024-03-15T11:22:55.781Z,8.20
2024-03-15T11:23:55.740Z,8.30
2024-03-15T11:24:55.851Z,7.60
2024-03-15T11:25:55.758Z,7.60
2024-03-15T11:26:55.713Z,7.70
2024-03-15T11:27:55.946Z,7.60
2024-03-15T11:29:00.059Z,7.80
2024-03-15T11:29:55.710Z,7.00
2024-03-15T11:30:55.743Z,7.30
2024-03-15T11:31:55.694Z,6.90
2024-03-15T11:32:55.697Z,6.80
2024-03-15T11:33:55.720Z,7.40
2024-03-15T11:34:55.657Z,7.10
2024-03-15T11:35:55.648Z,7.20
2024-03-15T11:36:55.715Z,6.80
2024-03-15T11:37:55.611Z,6.20
2024-03-15T11:38:55.600Z,6.30
2024-03-15T11:39:55.622Z,6.60
2024-03-15T11:40:55.554Z,6.10
2024-03-15T11:41:55.583Z,6.70
2024-03-15T11:43:02.821Z,6.20
2024-03-15T11:43:55.602Z,6.20
2024-03-15T11:44:55.548Z,7.10
2024-03-15T11:45:55.583Z,6.20
2024-03-15T11:46:57.175Z,6.90
2024-03-15T11:47:55.540Z,6.20
2024-03-15T11:48:55.522Z,6.40
2024-03-15T11:49:55.459Z,6.80
2024-03-15T11:50:55.504Z,6.20
2024-03-15T11:51:55.463Z,6.30
2024-03-15T11:52:55.428Z,6.30
2024-03-15T11:53:55.426Z,6.40
2024-03-15T11:54:55.745Z,6.30
2024-03-15T11:55:55.432Z,6.40
2024-03-15T11:56:55.415Z,6.80
2024-03-15T11:57:55.442Z,6.50
2024-03-15T11:58:55.360Z,6.60
2024-03-15T11:59:55.369Z,7.20
2024-03-15T12:00:55.708Z,6.70
2024-03-15T12:01:55.416Z,6.20
2024-03-15T12:02:55.348Z,6.50
2024-03-15T12:03:55.358Z,6.60
2024-03-15T12:04:55.300Z,6.70
2024-03-15T12:05:55.342Z,5.90
2024-03-15T12:06:55.736Z,5.20
2024-03-15T12:07:55.306Z,6.00
2024-03-15T12:08:55.300Z,6.00
2024-03-15T12:09:55.307Z,6.70
2024-03-15T12:10:55.474Z,6.00
2024-03-15T12:11:55.368Z,5.40
2024-03-15T12:12:55.281Z,5.80
2024-03-15T12:13:55.318Z,5.80
2024-03-15T12:14:55.241Z,6.00
2024-03-15T12:15:55.805Z,5.80
2024-03-15T12:16:55.237Z,6.50
2024-03-15T12:17:55.314Z,5.30
2024-03-15T12:18:55.268Z,5.50
2024-03-15T12:19:55.146Z,5.70
2024-03-15T12:20:55.160Z,5.60
2024-03-15T12:21:55.213Z,6.40
2024-03-15T12:22:55.126Z,6.10
2024-03-15T12:23:55.129Z,6.50
2024-03-15T12:24:55.236Z,5.60
2024-03-15T12:25:55.101Z,5.40
2024-03-15T12:26:55.081Z,6.20
2024-03-15T12:27:55.199Z,6.00
2024-03-15T12:28:55.053Z,5.50
2024-03-15T12:29:55.051Z,6.10
2024-03-15T12:30:55.274Z,6.60
2024-03-15T12:31:55.037Z,5.50
2024-03-15T12:32:55.064Z,5.70
2024-03-15T12:33:55.073Z,5.70
2024-03-15T12:34:55.053Z,5.60
2024-03-15T12:35:55.042Z,6.00
2024-03-15T12:36:55.037Z,5.90
2024-03-15T12:37:54.956Z,5.80
2024-03-15T12:38:54.943Z,5.90
2024-03-15T12:39:54.993Z,6.00
2024-03-15T12:40:54.910Z,5.70
2024-03-15T12:41:54.930Z,6.40
2024-03-15T12:42:54.967Z,6.00
2024-03-15T12:43:54.911Z,5.30
2024-03-15T12:44:54.879Z,6.50
2024-03-15T12:45:54.954Z,5.70
2024-03-15T12:46:54.932Z,6.00
2024-03-15T12:47:54.879Z,6.00
2024-03-15T12:48:55.322Z,5.50
2024-03-15T12:49:54.831Z,5.10
2024-03-15T12:50:54.821Z,5.20
2024-03-15T12:51:54.862Z,5.00
2024-03-15T12:52:54.791Z,5.30
2024-03-15T12:53:54.780Z,4.50
2024-03-15T12:54:54.793Z,5.20
2024-03-15T12:55:54.764Z,4.60
2024-03-15T12:56:54.766Z,4.80
2024-03-15T12:57:54.830Z,4.80
2024-03-15T12:58:54.786Z,4.60
2024-03-15T12:59:54.721Z,5.50
2024-03-15T13:00:54.816Z,5.40
2024-03-15T13:01:54.806Z,5.80
2024-03-15T13:02:56.881Z,5.50
2024-03-15T13:03:54.802Z,5.70